Hughestown, Pennsylvania
Current Conditions -  °F | °C
As of 10:54 PM on Wednesday 26 Nov 2014 (Local Time) from KAVP Reporting Station
Light Snow Light Snow  
Wind Chill: 24°   Ceiling: 1900
Heat Index: 32°   Visibility: 8mi
Dew Point: 27°   Wind: 10mph
Humidity: 82%   Direction: 270°W
Pressure: 29.9"   Gusts: NA
Location:  41.2973°N, 75.7399°W
Report Text: KAVP 270354Z AUTO 27009KT 8SM -SN FEW013 OVC019 00/M03 A2990 RMK AO2 SLP133 P0001 T00001028
Loading
Personal Weather Stations






























Interactive Weather Map New forecast layout! Learn more

10-Day Weather Forecast

Advertisements
Track Severe Weather on mobile